Time;durP1;ratioP1;P1;durP2;ratioP2;P2;SDS_P1;SDS_P2;PMS_P1;PMS_P2;Temp;Humidity;BMP_temperature;BMP_pressure;BME280_temperature;BME280_humidity;BME280_pressure;Samples;Min_cycle;Max_cycle;Signal;HPM_P1;HPM_P2
2024/02/29 00:00:06;;;;;;;;;;;1.30;99.90;;;;;;2053079;28;20950;-78
2024/02/29 00:01:07;;;;;;;;;;;1.30;99.90;;;;;;2061129;28;20003;-79
2024/02/29 00:02:09;;;;;;;;;;;1.40;99.90;;;;;;2057214;28;19933;-78
2024/02/29 00:03:09;;;;;;;;;;;1.30;99.90;;;;;;2057146;28;19910;-78
2024/02/29 00:04:10;;;;;;;;;;;1.30;99.90;;;;;;2058131;28;20289;-79
2024/02/29 00:05:11;;;;;;;;;;;1.40;99.90;;;;;;2059641;28;19980;-79
2024/02/29 00:06:12;;;;;;;;;;;1.40;99.90;;;;;;2059253;28;19918;-79
2024/02/29 00:07:12;;;;;;;;;;;1.30;99.90;;;;;;2058794;28;19921;-80
2024/02/29 00:08:13;;;;;;;;;;;1.30;99.90;;;;;;2060368;28;19914;-78
2024/02/29 00:09:13;;;;;;;;;;;1.30;99.90;;;;;;2060870;28;19909;-79
2024/02/29 00:10:14;;;;;;;;;;;1.30;99.90;;;;;;2053003;28;19913;-79
2024/02/29 00:11:14;;;;;;;;;;;1.20;99.90;;;;;;2060994;28;20053;-79
2024/02/29 00:12:15;;;;;;;;;;;1.30;99.90;;;;;;2057580;28;19962;-79
2024/02/29 00:13:15;;;;;;;;;;;1.20;99.90;;;;;;2060519;28;19968;-78
2024/02/29 00:14:16;;;;;;;;;;;1.20;99.90;;;;;;2061503;28;20280;-79
2024/02/29 00:15:17;;;;;;;;;;;1.20;99.90;;;;;;2061284;28;19951;-78
2024/02/29 00:16:18;;;;;;;;;;;1.30;99.90;;;;;;2052717;28;19918;-79
2024/02/29 00:17:19;;;;;;;;;;;1.30;99.90;;;;;;2052849;28;19910;-80
2024/02/29 00:18:20;;;;;;;;;;;1.20;99.90;;;;;;2057533;28;19906;-80
2024/02/29 00:19:20;;;;;;;;;;;1.10;99.90;;;;;;2061061;28;20442;-80
2024/02/29 00:20:21;;;;;;;;;;;1.10;99.90;;;;;;2055677;28;19917;-77
2024/02/29 00:21:22;;;;;;;;;;;1.10;99.90;;;;;;2055657;28;20003;-77
2024/02/29 00:22:22;;;;;;;;;;;1.10;99.90;;;;;;2061673;28;20456;-78
2024/02/29 00:23:23;;;;;;;;;;;1.10;99.90;;;;;;2063318;28;20388;-79
2024/02/29 00:24:23;;;;;;;;;;;1.20;99.90;;;;;;2061547;28;19949;-79
2024/02/29 00:25:24;;;;;;;;;;;1.20;99.90;;;;;;2057260;28;19914;-79
2024/02/29 00:26:24;;;;;;;;;;;1.20;99.90;;;;;;2061774;28;19917;-79
2024/02/29 00:27:25;;;;;;;;;;;1.20;99.90;;;;;;2060556;28;19914;-78
2024/02/29 00:28:26;;;;;;;;;;;1.20;99.90;;;;;;2061073;28;19947;-80
2024/02/29 00:29:28;;;;;;;;;;;1.10;99.90;;;;;;2061699;28;20001;-80
2024/02/29 00:30:28;;;;;;;;;;;1.10;99.90;;;;;;2053605;28;19914;-80
2024/02/29 00:31:29;;;;;;;;;;;1.10;99.90;;;;;;2056904;28;19941;-77
2024/02/29 00:32:29;;;;;;;;;;;1.10;99.90;;;;;;2061298;28;20435;-78
2024/02/29 00:33:30;;;;;;;;;;;1.10;99.90;;;;;;2061659;28;19910;-78
2024/02/29 00:34:30;;;;;;;;;;;1.10;99.90;;;;;;2060708;28;19916;-79
2024/02/29 00:35:33;;;;;;;;;;;1.20;99.90;;;;;;2060195;28;19953;-78
2024/02/29 00:36:34;;;;;;;;;;;1.10;99.90;;;;;;2058211;28;20316;-78
2024/02/29 00:37:35;;;;;;;;;;;1.10;99.90;;;;;;2061640;28;19949;-79
2024/02/29 00:38:36;;;;;;;;;;;1.10;99.90;;;;;;2059208;28;20050;-78
2024/02/29 00:39:36;;;;;;;;;;;1.00;99.90;;;;;;2053919;28;19921;-80
2024/02/29 00:40:37;;;;;;;;;;;1.00;99.90;;;;;;2059359;28;19916;-71
2024/02/29 00:41:37;;;;;;;;;;;1.00;99.90;;;;;;2057302;28;19917;-71
2024/02/29 00:42:38;;;;;;;;;;;1.00;99.90;;;;;;2060339;28;20328;-71
2024/02/29 00:43:40;;;;;;;;;;;1.00;99.90;;;;;;2060134;28;19921;-71
2024/02/29 00:44:40;;;;;;;;;;;0.90;99.90;;;;;;2059571;28;19910;-70
2024/02/29 00:45:41;;;;;;;;;;;0.90;99.90;;;;;;2059615;28;20394;-69
2024/02/29 00:46:41;;;;;;;;;;;0.80;99.90;;;;;;2060220;28;20024;-71
2024/02/29 00:47:42;;;;;;;;;;;0.80;99.90;;;;;;2060189;28;20213;-71
2024/02/29 00:48:42;;;;;;;;;;;0.80;99.90;;;;;;2059350;28;19961;-71
2024/02/29 00:49:43;;;;;;;;;;;0.80;99.90;;;;;;2059805;28;19913;-70
2024/02/29 00:50:43;;;;;;;;;;;0.80;99.90;;;;;;2059248;28;19940;-71
2024/02/29 00:51:44;;;;;;;;;;;0.80;99.90;;;;;;2059493;28;19914;-70
2024/02/29 00:52:44;;;;;;;;;;;0.80;99.90;;;;;;2059392;28;20102;-70
2024/02/29 00:53:45;;;;;;;;;;;0.80;99.90;;;;;;2057804;28;19913;-71
2024/02/29 00:54:45;;;;;;;;;;;0.90;99.90;;;;;;2057842;28;19909;-71
2024/02/29 00:55:46;;;;;;;;;;;1.00;99.90;;;;;;2058126;28;20312;-70
2024/02/29 00:56:46;;;;;;;;;;;1.00;99.90;;;;;;2057816;28;19913;-71
2024/02/29 00:57:49;;;;;;;;;;;1.00;99.90;;;;;;2059690;28;19909;-70
2024/02/29 00:58:50;;;;;;;;;;;1.00;99.90;;;;;;2056495;28;19932;-71
2024/02/29 00:59:50;;;;;;;;;;;0.90;99.90;;;;;;2059733;28;20489;-71
2024/02/29 01:00:51;;;;;;;;;;;1.00;99.90;;;;;;2058501;28;19910;-71
2024/02/29 01:01:51;;;;;;;;;;;0.90;99.90;;;;;;2056337;28;20806;-71
2024/02/29 01:02:52;;;;;;;;;;;0.90;99.90;;;;;;2059295;28;20004;-71
2024/02/29 01:03:53;;;;;;;;;;;1.00;99.90;;;;;;2052617;28;19914;-70
2024/02/29 01:04:54;;;;;;;;;;;1.00;99.90;;;;;;2058009;28;19916;-71
2024/02/29 01:05:54;;;;;;;;;;;1.00;99.90;;;;;;2067544;28;19918;-71
2024/02/29 01:06:56;;;;;;;;;;;1.10;99.90;;;;;;2067354;28;20356;-69
2024/02/29 01:07:57;;;;;;;;;;;1.10;99.90;;;;;;2060359;28;19912;-69
2024/02/29 01:08:58;;;;;;;;;;;1.10;99.90;;;;;;2056543;28;19914;-69
2024/02/29 01:09:58;;;;;;;;;;;1.10;99.90;;;;;;2054336;28;19922;-71
2024/02/29 01:10:59;;;;;;;;;;;1.10;99.90;;;;;;2052055;28;19949;-69
2024/02/29 01:12:00;;;;;;;;;;;1.20;99.90;;;;;;2059461;28;20395;-69
2024/02/29 01:13:00;;;;;;;;;;;1.10;99.90;;;;;;2060191;28;20390;-70
2024/02/29 01:14:02;;;;;;;;;;;1.10;99.90;;;;;;2060147;28;19910;-70
2024/02/29 01:15:03;;;;;;;;;;;1.20;99.90;;;;;;2058982;28;19914;-69
2024/02/29 01:16:04;;;;;;;;;;;1.20;99.90;;;;;;2058306;28;19936;-71
2024/02/29 01:17:04;;;;;;;;;;;1.20;99.90;;;;;;2059220;28;20052;-71
2024/02/29 01:18:08;;;;;;;;;;;1.20;99.90;;;;;;2058824;28;19913;-70
2024/02/29 01:19:08;;;;;;;;;;;1.20;99.90;;;;;;2056988;28;19913;-71
2024/02/29 01:20:09;;;;;;;;;;;1.20;99.90;;;;;;2059676;28;20641;-71
2024/02/29 01:21:09;;;;;;;;;;;1.30;99.90;;;;;;2055919;28;19910;-71
2024/02/29 01:22:10;;;;;;;;;;;1.20;99.90;;;;;;2059831;28;20008;-70
2024/02/29 01:23:10;;;;;;;;;;;1.30;99.90;;;;;;2059576;28;20340;-69
2024/02/29 01:24:11;;;;;;;;;;;1.30;99.90;;;;;;2055839;28;19945;-69
2024/02/29 01:25:11;;;;;;;;;;;1.30;99.90;;;;;;2056149;28;20451;-69
2024/02/29 01:26:12;;;;;;;;;;;1.20;99.90;;;;;;2059398;28;19917;-69
2024/02/29 01:27:12;;;;;;;;;;;1.20;99.90;;;;;;2059025;28;19921;-69
2024/02/29 01:28:13;;;;;;;;;;;1.30;99.90;;;;;;2059251;28;20093;-69
2024/02/29 01:29:13;;;;;;;;;;;1.30;99.90;;;;;;2059904;28;19913;-68
2024/02/29 01:30:14;;;;;;;;;;;1.30;99.90;;;;;;2054678;28;20311;-69
2024/02/29 01:31:14;;;;;;;;;;;1.30;99.90;;;;;;2054118;28;19917;-69
2024/02/29 01:32:15;;;;;;;;;;;1.30;99.90;;;;;;2059604;28;19964;-69
2024/02/29 01:33:15;;;;;;;;;;;1.30;99.90;;;;;;2059718;28;19917;-69
2024/02/29 01:34:17;;;;;;;;;;;1.30;99.90;;;;;;2059941;28;19916;-69
2024/02/29 01:35:18;;;;;;;;;;;1.30;99.90;;;;;;2054962;28;20420;-69
2024/02/29 01:36:18;;;;;;;;;;;1.30;99.90;;;;;;2056842;28;19914;-70
2024/02/29 01:37:19;;;;;;;;;;;1.40;99.90;;;;;;2057984;28;19968;-70
2024/02/29 01:38:19;;;;;;;;;;;1.30;99.90;;;;;;2059457;28;19932;-68
2024/02/29 01:39:21;;;;;;;;;;;1.30;99.90;;;;;;2059358;28;19914;-69
2024/02/29 01:40:22;;;;;;;;;;;1.30;99.90;;;;;;2055916;28;20005;-69
2024/02/29 01:41:22;;;;;;;;;;;1.30;99.90;;;;;;2053663;28;20479;-69
2024/02/29 01:42:23;;;;;;;;;;;1.40;99.90;;;;;;2058233;28;20221;-69
2024/02/29 01:43:23;;;;;;;;;;;1.30;99.90;;;;;;2055102;28;19992;-70
2024/02/29 01:44:24;;;;;;;;;;;1.30;99.90;;;;;;2059789;28;19914;-69
2024/02/29 01:45:24;;;;;;;;;;;1.30;99.90;;;;;;2056701;28;20311;-69
2024/02/29 01:46:25;;;;;;;;;;;1.20;99.90;;;;;;2051051;28;19926;-68
2024/02/29 01:47:26;;;;;;;;;;;1.20;99.90;;;;;;2058269;28;20003;-69
2024/02/29 01:48:26;;;;;;;;;;;1.30;99.90;;;;;;2058865;28;19925;-70
2024/02/29 01:49:27;;;;;;;;;;;1.20;99.90;;;;;;2056252;28;19969;-69
2024/02/29 01:50:28;;;;;;;;;;;1.30;99.90;;;;;;2057507;28;20149;-70
2024/02/29 01:51:29;;;;;;;;;;;1.30;99.90;;;;;;2052414;28;19976;-69
2024/02/29 01:52:31;;;;;;;;;;;1.20;99.90;;;;;;2058041;28;20229;-69
2024/02/29 01:53:32;;;;;;;;;;;1.10;99.90;;;;;;2055610;28;20490;-69
2024/02/29 01:54:32;;;;;;;;;;;1.20;99.90;;;;;;2059241;28;20016;-69
2024/02/29 01:55:33;;;;;;;;;;;1.20;99.90;;;;;;2055542;28;20719;-69
2024/02/29 01:56:38;;;;;;;;;;;1.20;99.90;;;;;;2055991;28;19954;-69
2024/02/29 01:57:39;;;;;;;;;;;1.20;99.90;;;;;;2061023;28;19913;-70
2024/02/29 01:58:41;;;;;;;;;;;1.20;99.90;;;;;;2059334;28;19963;-69
2024/02/29 01:59:42;;;;;;;;;;;1.20;99.90;;;;;;2050455;28;20388;-69
2024/02/29 02:00:43;;;;;;;;;;;1.20;99.90;;;;;;2043089;28;20009;-69
2024/02/29 02:01:44;;;;;;;;;;;1.10;99.90;;;;;;2059015;28;19909;-69
2024/02/29 02:02:45;;;;;;;;;;;1.10;99.90;;;;;;2058667;28;19914;-69
2024/02/29 02:03:45;;;;;;;;;;;1.10;99.90;;;;;;2059808;28;19964;-69
2024/02/29 02:04:46;;;;;;;;;;;1.10;99.90;;;;;;2059719;28;20292;-69
2024/02/29 02:05:46;;;;;;;;;;;1.10;99.90;;;;;;2059613;28;19906;-68
2024/02/29 02:06:47;;;;;;;;;;;1.20;99.90;;;;;;2058993;28;19966;-70
2024/02/29 02:07:48;;;;;;;;;;;1.20;99.90;;;;;;2055586;28;19921;-70
2024/02/29 02:08:48;;;;;;;;;;;1.20;99.90;;;;;;2059706;28;20335;-70
2024/02/29 02:09:49;;;;;;;;;;;1.20;99.90;;;;;;2059583;28;19910;-69
2024/02/29 02:10:50;;;;;;;;;;;1.20;99.90;;;;;;2059592;28;19910;-69
2024/02/29 02:11:50;;;;;;;;;;;1.20;99.90;;;;;;2059095;28;20134;-68
2024/02/29 02:12:51;;;;;;;;;;;1.20;99.90;;;;;;2058706;28;19905;-69
2024/02/29 02:13:51;;;;;;;;;;;1.20;99.90;;;;;;2057610;28;19914;-69
2024/02/29 02:14:52;;;;;;;;;;;1.10;99.90;;;;;;2056401;28;19916;-69
2024/02/29 02:15:52;;;;;;;;;;;1.10;99.90;;;;;;2058765;28;20367;-68
2024/02/29 02:16:53;;;;;;;;;;;1.10;99.90;;;;;;2059571;28;20243;-69
2024/02/29 02:17:53;;;;;;;;;;;1.10;99.90;;;;;;2056139;28;20249;-70
2024/02/29 02:18:54;;;;;;;;;;;1.20;99.90;;;;;;2059828;28;19944;-68
2024/02/29 02:19:55;;;;;;;;;;;1.20;99.90;;;;;;2053918;28;20403;-69
2024/02/29 02:20:55;;;;;;;;;;;1.20;99.90;;;;;;2040013;28;20005;-71
2024/02/29 02:21:58;;;;;;;;;;;1.20;99.90;;;;;;2043522;29;20262;-69
2024/02/29 02:22:58;;;;;;;;;;;1.10;99.90;;;;;;2057185;28;19920;-69
2024/02/29 02:23:59;;;;;;;;;;;1.10;99.90;;;;;;2053340;28;20028;-70
2024/02/29 02:24:59;;;;;;;;;;;1.20;99.90;;;;;;2059505;28;19913;-69
2024/02/29 02:26:00;;;;;;;;;;;1.20;99.90;;;;;;2059652;28;19910;-69
2024/02/29 02:27:01;;;;;;;;;;;1.20;99.90;;;;;;2060327;28;19964;-69
2024/02/29 02:28:01;;;;;;;;;;;1.20;99.90;;;;;;2053504;28;20024;-68
2024/02/29 02:29:03;;;;;;;;;;;1.20;99.90;;;;;;2057582;28;20317;-68
2024/02/29 02:30:06;;;;;;;;;;;1.20;99.90;;;;;;2052453;28;19910;-69
2024/02/29 02:31:07;;;;;;;;;;;1.20;99.90;;;;;;2052029;28;20381;-68
2024/02/29 02:32:07;;;;;;;;;;;1.10;99.90;;;;;;2059898;28;19976;-68
2024/02/29 02:33:09;;;;;;;;;;;1.10;99.90;;;;;;2061190;28;20376;-68
2024/02/29 02:34:10;;;;;;;;;;;1.00;99.90;;;;;;2060888;28;19914;-68
2024/02/29 02:35:10;;;;;;;;;;;1.00;99.90;;;;;;2057003;28;19921;-69
2024/02/29 02:36:10;;;;;;;;;;;1.00;99.90;;;;;;2061278;28;19913;-70
2024/02/29 02:37:11;;;;;;;;;;;1.00;99.90;;;;;;2061128;28;20859;-69
2024/02/29 02:38:11;;;;;;;;;;;1.00;99.90;;;;;;2060845;28;19972;-70
2024/02/29 02:39:12;;;;;;;;;;;1.10;99.90;;;;;;2058229;28;19988;-69
2024/02/29 02:40:13;;;;;;;;;;;1.00;99.90;;;;;;2060070;28;19917;-70
2024/02/29 02:41:13;;;;;;;;;;;1.00;99.90;;;;;;2060307;28;20258;-70
2024/02/29 02:42:13;;;;;;;;;;;1.10;99.90;;;;;;2060515;28;19914;-70
2024/02/29 02:43:14;;;;;;;;;;;1.20;99.90;;;;;;2057079;28;19972;-70
2024/02/29 02:44:14;;;;;;;;;;;1.20;99.90;;;;;;2058294;28;19924;-69
2024/02/29 02:45:15;;;;;;;;;;;1.10;99.90;;;;;;2060286;28;19917;-69
2024/02/29 02:46:16;;;;;;;;;;;1.20;99.90;;;;;;2061177;28;19999;-69
2024/02/29 02:47:16;;;;;;;;;;;1.10;99.90;;;;;;2060899;28;19964;-68
2024/02/29 02:48:17;;;;;;;;;;;1.20;99.90;;;;;;2057600;28;20277;-69
2024/02/29 02:49:17;;;;;;;;;;;1.10;99.90;;;;;;2060453;28;19975;-69
2024/02/29 02:50:18;;;;;;;;;;;1.10;99.90;;;;;;2056853;28;19959;-68
2024/02/29 02:51:18;;;;;;;;;;;1.10;99.90;;;;;;2059957;28;20687;-69
2024/02/29 02:52:19;;;;;;;;;;;1.10;99.90;;;;;;2060851;28;19921;-70
2024/02/29 02:53:19;;;;;;;;;;;1.10;99.90;;;;;;2056350;28;19937;-70
2024/02/29 02:54:20;;;;;;;;;;;1.00;99.90;;;;;;2060832;28;19913;-70
2024/02/29 02:55:20;;;;;;;;;;;1.00;99.90;;;;;;2060894;28;20341;-70
2024/02/29 02:56:21;;;;;;;;;;;1.00;99.90;;;;;;2053647;28;20385;-70
2024/02/29 02:57:21;;;;;;;;;;;1.10;99.90;;;;;;2056878;28;20104;-70
2024/02/29 02:58:22;;;;;;;;;;;1.10;99.90;;;;;;2060082;28;20335;-71
2024/02/29 02:59:22;;;;;;;;;;;1.10;99.90;;;;;;2056150;28;20390;-70
2024/02/29 03:00:23;;;;;;;;;;;1.10;99.90;;;;;;2056743;28;19960;-70
2024/02/29 03:01:23;;;;;;;;;;;1.10;99.90;;;;;;2060619;28;19956;-70
2024/02/29 03:02:24;;;;;;;;;;;1.00;99.90;;;;;;2060891;28;19913;-69
2024/02/29 03:03:25;;;;;;;;;;;1.00;99.90;;;;;;2054330;28;19940;-70
2024/02/29 03:04:25;;;;;;;;;;;0.90;99.90;;;;;;2057233;28;20009;-70
2024/02/29 03:05:26;;;;;;;;;;;0.90;99.90;;;;;;2059899;28;19960;-68
2024/02/29 03:06:26;;;;;;;;;;;0.90;99.90;;;;;;2056244;28;19909;-68
2024/02/29 03:07:27;;;;;;;;;;;0.90;99.90;;;;;;2056728;28;19910;-68
2024/02/29 03:08:28;;;;;;;;;;;0.90;99.90;;;;;;2057788;28;19917;-68
2024/02/29 03:09:30;;;;;;;;;;;0.90;99.90;;;;;;2060616;28;19913;-69
2024/02/29 03:10:30;;;;;;;;;;;1.00;99.90;;;;;;2060690;28;19910;-70
2024/02/29 03:11:31;;;;;;;;;;;1.00;99.90;;;;;;2062712;28;19916;-69
2024/02/29 03:12:31;;;;;;;;;;;1.00;99.90;;;;;;2060831;28;19921;-69
2024/02/29 03:13:32;;;;;;;;;;;0.90;99.90;;;;;;2061077;28;20383;-70
2024/02/29 03:14:32;;;;;;;;;;;0.90;99.90;;;;;;2056066;28;20004;-68
2024/02/29 03:15:33;;;;;;;;;;;0.90;99.90;;;;;;2060116;28;19957;-69
2024/02/29 03:16:33;;;;;;;;;;;0.90;99.90;;;;;;2060444;28;20280;-69
2024/02/29 03:17:34;;;;;;;;;;;0.90;99.90;;;;;;2056576;28;20052;-69
2024/02/29 03:18:34;;;;;;;;;;;0.80;99.90;;;;;;2052221;28;19917;-69
2024/02/29 03:19:35;;;;;;;;;;;0.80;99.90;;;;;;2060068;28;20454;-69
2024/02/29 03:20:35;;;;;;;;;;;0.70;99.90;;;;;;2060720;28;19914;-68
2024/02/29 03:21:36;;;;;;;;;;;0.70;99.90;;;;;;2056734;28;19914;-68
2024/02/29 03:22:36;;;;;;;;;;;0.70;99.90;;;;;;2060851;28;19910;-69
2024/02/29 03:23:37;;;;;;;;;;;0.80;99.90;;;;;;2060784;28;20284;-68
2024/02/29 03:24:43;;;;;;;;;;;0.80;99.90;;;;;;2057240;28;20408;-69
2024/02/29 03:25:43;;;;;;;;;;;0.80;99.90;;;;;;2060842;28;19910;-69
2024/02/29 03:26:44;;;;;;;;;;;0.80;99.90;;;;;;2060803;28;19914;-68
2024/02/29 03:27:46;;;;;;;;;;;0.80;99.90;;;;;;2057032;28;19917;-68
2024/02/29 03:28:46;;;;;;;;;;;0.80;99.90;;;;;;2060151;28;19910;-69
2024/02/29 03:29:46;;;;;;;;;;;0.80;99.90;;;;;;2047862;28;19917;-69
2024/02/29 03:30:47;;;;;;;;;;;0.80;99.90;;;;;;2059614;28;20208;-69
2024/02/29 03:31:49;;;;;;;;;;;0.80;99.90;;;;;;2054796;28;19960;-69
2024/02/29 03:32:52;;;;;;;;;;;0.80;99.90;;;;;;2060833;28;19921;-69
2024/02/29 03:33:52;;;;;;;;;;;0.90;99.90;;;;;;2060664;28;19943;-68
2024/02/29 03:34:53;;;;;;;;;;;0.80;99.90;;;;;;2060878;28;19905;-69
2024/02/29 03:35:53;;;;;;;;;;;0.70;99.90;;;;;;2060458;28;19914;-69
2024/02/29 03:36:54;;;;;;;;;;;0.70;99.90;;;;;;2060814;28;20006;-69
2024/02/29 03:37:54;;;;;;;;;;;0.70;99.90;;;;;;2060530;28;20399;-69
2024/02/29 03:38:55;;;;;;;;;;;0.70;99.90;;;;;;2060864;28;19914;-69
2024/02/29 03:39:55;;;;;;;;;;;0.80;99.90;;;;;;2059727;28;20332;-69
2024/02/29 03:40:56;;;;;;;;;;;0.70;99.90;;;;;;2057357;28;19918;-68
2024/02/29 03:41:56;;;;;;;;;;;0.80;99.90;;;;;;2059646;28;20080;-68
2024/02/29 03:42:57;;;;;;;;;;;0.80;99.90;;;;;;2060478;28;19914;-68
2024/02/29 03:43:58;;;;;;;;;;;0.70;99.90;;;;;;2060726;28;19921;-70
2024/02/29 03:44:58;;;;;;;;;;;0.60;99.90;;;;;;2056111;28;19924;-69
2024/02/29 03:45:59;;;;;;;;;;;0.60;99.90;;;;;;2060834;28;20679;-69
2024/02/29 03:46:59;;;;;;;;;;;0.50;99.90;;;;;;2056491;28;19913;-69
2024/02/29 03:48:00;;;;;;;;;;;0.50;99.90;;;;;;2057508;28;20351;-69
2024/02/29 03:49:00;;;;;;;;;;;0.50;99.90;;;;;;2056802;28;19991;-69
2024/02/29 03:50:01;;;;;;;;;;;0.50;99.90;;;;;;2058601;28;20939;-69
2024/02/29 03:51:02;;;;;;;;;;;0.40;99.90;;;;;;2060616;28;19914;-69
2024/02/29 03:52:02;;;;;;;;;;;0.40;99.90;;;;;;2060551;28;19973;-69
2024/02/29 03:53:03;;;;;;;;;;;0.40;99.90;;;;;;2053898;28;19914;-69
2024/02/29 03:54:04;;;;;;;;;;;0.50;99.90;;;;;;2059492;28;20012;-69
2024/02/29 03:55:04;;;;;;;;;;;0.50;99.90;;;;;;2059769;28;19914;-69
2024/02/29 03:56:06;;;;;;;;;;;0.40;99.90;;;;;;2055794;28;19970;-69
2024/02/29 03:57:07;;;;;;;;;;;0.40;99.90;;;;;;2060654;28;19918;-69
2024/02/29 03:58:08;;;;;;;;;;;0.40;99.90;;;;;;2059661;28;20392;-70
2024/02/29 03:59:08;;;;;;;;;;;0.50;99.90;;;;;;2055939;28;19909;-69
2024/02/29 04:00:12;;;;;;;;;;;0.40;99.90;;;;;;2060579;28;20295;-71
2024/02/29 04:01:12;;;;;;;;;;;0.50;99.90;;;;;;2056771;28;19914;-69
2024/02/29 04:02:13;;;;;;;;;;;0.50;99.90;;;;;;2060680;28;19910;-68
2024/02/29 04:03:13;;;;;;;;;;;0.40;99.90;;;;;;2060568;28;19995;-69
2024/02/29 04:04:15;;;;;;;;;;;0.50;99.90;;;;;;2060624;28;19956;-69
2024/02/29 04:05:15;;;;;;;;;;;0.50;99.90;;;;;;2060409;28;20015;-69
2024/02/29 04:06:16;;;;;;;;;;;0.40;99.90;;;;;;2059745;28;19948;-69
2024/02/29 04:07:17;;;;;;;;;;;0.40;99.90;;;;;;2055469;28;20349;-69
2024/02/29 04:08:17;;;;;;;;;;;0.40;99.90;;;;;;2056409;28;19976;-69
2024/02/29 04:09:18;;;;;;;;;;;0.40;99.90;;;;;;2056936;28;20343;-69
2024/02/29 04:10:18;;;;;;;;;;;0.40;99.90;;;;;;2055666;28;19997;-69
2024/02/29 04:11:19;;;;;;;;;;;0.40;99.90;;;;;;2059685;28;20487;-70
2024/02/29 04:12:19;;;;;;;;;;;0.40;99.90;;;;;;2060581;28;19967;-69
2024/02/29 04:13:20;;;;;;;;;;;0.40;99.90;;;;;;2056512;28;20004;-70
2024/02/29 04:14:21;;;;;;;;;;;0.40;99.90;;;;;;2060359;28;20273;-69
2024/02/29 04:15:21;;;;;;;;;;;0.40;99.90;;;;;;2059755;28;20161;-69
2024/02/29 04:16:22;;;;;;;;;;;0.30;99.90;;;;;;2057130;28;19914;-69
2024/02/29 04:17:23;;;;;;;;;;;0.30;99.90;;;;;;2059698;28;20009;-75
2024/02/29 04:18:23;;;;;;;;;;;0.40;99.90;;;;;;2057709;28;19914;-79
2024/02/29 04:19:24;;;;;;;;;;;0.30;99.90;;;;;;2061190;28;19918;-79
2024/02/29 04:20:24;;;;;;;;;;;0.30;99.90;;;;;;2061884;28;19914;-73
2024/02/29 04:21:25;;;;;;;;;;;0.30;99.90;;;;;;2061739;28;19917;-81
2024/02/29 04:22:25;;;;;;;;;;;0.30;99.90;;;;;;2059435;28;19920;-80
2024/02/29 04:23:26;;;;;;;;;;;0.30;99.90;;;;;;2054022;28;19914;-79
2024/02/29 04:24:26;;;;;;;;;;;0.20;99.90;;;;;;2061032;28;19910;-79
2024/02/29 04:25:27;;;;;;;;;;;0.20;99.90;;;;;;2060904;28;19933;-79
2024/02/29 04:26:28;;;;;;;;;;;0.20;99.90;;;;;;2061458;28;19913;-80
2024/02/29 04:27:29;;;;;;;;;;;0.20;99.90;;;;;;2061361;28;20265;-79
2024/02/29 04:28:29;;;;;;;;;;;0.20;99.90;;;;;;2061618;28;19913;-79
2024/02/29 04:29:30;;;;;;;;;;;0.20;99.90;;;;;;2061602;28;19945;-79
2024/02/29 04:30:30;;;;;;;;;;;0.20;99.90;;;;;;2061276;28;19956;-79
2024/02/29 04:31:30;;;;;;;;;;;0.20;99.90;;;;;;2056870;28;19909;-80
2024/02/29 04:32:32;;;;;;;;;;;0.20;99.90;;;;;;2061624;28;20276;-79
2024/02/29 04:33:32;;;;;;;;;;;0.20;99.90;;;;;;2060756;28;19920;-80
2024/02/29 04:34:33;;;;;;;;;;;0.20;99.90;;;;;;2060592;28;19906;-79
2024/02/29 04:35:34;;;;;;;;;;;0.20;99.90;;;;;;2061747;28;19921;-80
2024/02/29 04:36:34;;;;;;;;;;;0.20;99.90;;;;;;2060995;28;20251;-80
2024/02/29 04:37:36;;;;;;;;;;;0.10;99.90;;;;;;2061027;28;20336;-81
2024/02/29 04:38:36;;;;;;;;;;;0.10;99.90;;;;;;2061688;28;19917;-79
2024/02/29 04:39:37;;;;;;;;;;;0.20;99.90;;;;;;2061685;28;19949;-80
2024/02/29 04:40:37;;;;;;;;;;;0.20;99.90;;;;;;2061361;28;19918;-79
2024/02/29 04:41:38;;;;;;;;;;;0.20;99.90;;;;;;2053110;28;19933;-79
2024/02/29 04:42:38;;;;;;;;;;;0.20;99.90;;;;;;2053561;28;20404;-81
2024/02/29 04:43:39;;;;;;;;;;;0.30;99.90;;;;;;2062226;28;19906;-79
2024/02/29 04:44:39;;;;;;;;;;;0.30;99.90;;;;;;2061333;28;19920;-81
2024/02/29 04:45:40;;;;;;;;;;;0.30;99.90;;;;;;2060525;28;19925;-80
2024/02/29 04:46:41;;;;;;;;;;;0.20;99.90;;;;;;2057410;28;19969;-80
2024/02/29 04:47:41;;;;;;;;;;;0.20;99.90;;;;;;2069076;28;20181;-80
2024/02/29 04:48:42;;;;;;;;;;;0.20;99.90;;;;;;2069308;28;19913;-79
2024/02/29 04:49:42;;;;;;;;;;;0.10;99.90;;;;;;2061619;28;20203;-79
2024/02/29 04:50:43;;;;;;;;;;;0.10;99.90;;;;;;2059485;28;19914;-79
2024/02/29 04:51:43;;;;;;;;;;;0.10;99.90;;;;;;2059416;28;20299;-79
2024/02/29 04:52:44;;;;;;;;;;;0.00;99.90;;;;;;2057698;28;19921;-79
2024/02/29 04:53:44;;;;;;;;;;;0.00;99.90;;;;;;2060940;28;20407;-78
2024/02/29 04:54:45;;;;;;;;;;;0.00;99.90;;;;;;2061006;28;19956;-79
2024/02/29 04:55:45;;;;;;;;;;;0.00;99.90;;;;;;2060943;28;20337;-78
2024/02/29 04:56:46;;;;;;;;;;;0.00;99.90;;;;;;2060292;28;20056;-79
2024/02/29 04:57:47;;;;;;;;;;;-0.10;99.90;;;;;;2060648;28;20336;-79
2024/02/29 04:58:48;;;;;;;;;;;-0.10;99.90;;;;;;2063243;28;20000;-78
2024/02/29 04:59:49;;;;;;;;;;;-0.10;99.90;;;;;;2061937;28;20355;-81
2024/02/29 05:00:49;;;;;;;;;;;-0.10;99.90;;;;;;2058146;28;19949;-80
2024/02/29 05:01:50;;;;;;;;;;;-0.10;99.90;;;;;;2061108;28;19914;-81
2024/02/29 05:02:50;;;;;;;;;;;0.00;99.90;;;;;;2061406;28;20400;-80
2024/02/29 05:03:51;;;;;;;;;;;-0.10;99.90;;;;;;2061733;28;20446;-80
2024/02/29 05:04:53;;;;;;;;;;;-0.10;99.90;;;;;;2051590;28;19918;-81
2024/02/29 05:05:53;;;;;;;;;;;-0.10;99.90;;;;;;2061387;28;19964;-80
2024/02/29 05:06:54;;;;;;;;;;;-0.10;99.90;;;;;;2053738;28;19914;-81
2024/02/29 05:07:54;;;;;;;;;;;-0.10;99.90;;;;;;2057462;28;19921;-80
2024/02/29 05:08:55;;;;;;;;;;;-0.10;99.90;;;;;;2046881;28;19914;-81
2024/02/29 05:09:55;;;;;;;;;;;-0.10;99.90;;;;;;2060159;28;20269;-79
2024/02/29 05:10:57;;;;;;;;;;;-0.10;99.90;;;;;;2060448;28;19967;-80
2024/02/29 05:11:57;;;;;;;;;;;0.00;99.90;;;;;;2061640;28;20383;-80
2024/02/29 05:12:58;;;;;;;;;;;0.00;99.90;;;;;;2058299;28;19906;-80
2024/02/29 05:13:58;;;;;;;;;;;0.00;99.90;;;;;;2061211;28;19920;-80
2024/02/29 05:14:59;;;;;;;;;;;0.00;99.90;;;;;;2062738;28;19932;-80
2024/02/29 05:16:03;;;;;;;;;;;0.00;99.90;;;;;;2061318;28;19929;-81
2024/02/29 05:17:03;;;;;;;;;;;0.10;99.90;;;;;;2054294;28;19917;-82
2024/02/29 05:18:06;;;;;;;;;;;0.10;99.90;;;;;;2062415;28;20143;-81
2024/02/29 05:19:06;;;;;;;;;;;0.00;99.90;;;;;;2056647;28;20253;-81
2024/02/29 05:20:07;;;;;;;;;;;0.10;99.90;;;;;;2062993;28;19910;-80
2024/02/29 05:21:07;;;;;;;;;;;0.00;99.90;;;;;;2063526;28;19969;-80
2024/02/29 05:22:08;;;;;;;;;;;0.10;99.90;;;;;;2064183;28;20299;-79
2024/02/29 05:23:11;;;;;;;;;;;0.10;99.90;;;;;;2060492;28;19910;-79
2024/02/29 05:24:11;;;;;;;;;;;0.10;99.90;;;;;;2062372;28;19914;-80
2024/02/29 05:25:12;;;;;;;;;;;0.20;99.90;;;;;;2062296;28;19980;-80
2024/02/29 05:26:13;;;;;;;;;;;0.20;99.90;;;;;;2053060;28;19932;-80
2024/02/29 05:27:13;;;;;;;;;;;0.20;99.90;;;;;;2057322;28;19910;-81
2024/02/29 05:28:14;;;;;;;;;;;0.20;99.90;;;;;;2061969;28;19906;-80
2024/02/29 05:29:15;;;;;;;;;;;0.20;99.90;;;;;;2060279;28;20060;-80
2024/02/29 05:30:15;;;;;;;;;;;0.20;99.90;;;;;;2061356;28;19914;-80
2024/02/29 05:31:16;;;;;;;;;;;0.30;99.90;;;;;;2058686;28;19913;-80
2024/02/29 05:32:16;;;;;;;;;;;0.30;99.90;;;;;;2061340;28;20486;-80
2024/02/29 05:33:17;;;;;;;;;;;0.30;99.90;;;;;;2061065;28;19948;-80
2024/02/29 05:34:17;;;;;;;;;;;0.30;99.90;;;;;;2057821;28;20424;-80
2024/02/29 05:35:18;;;;;;;;;;;0.30;99.90;;;;;;2052415;28;19937;-80
2024/02/29 05:36:18;;;;;;;;;;;0.30;99.90;;;;;;2059082;28;19984;-83
2024/02/29 05:37:19;;;;;;;;;;;0.30;99.90;;;;;;2062387;28;19960;-81
2024/02/29 05:38:19;;;;;;;;;;;0.30;99.90;;;;;;2057726;28;19920;-81
2024/02/29 05:39:20;;;;;;;;;;;0.40;99.90;;;;;;2060136;28;20332;-80
2024/02/29 05:40:20;;;;;;;;;;;0.40;99.90;;;;;;2054887;28;19913;-70
2024/02/29 05:41:21;;;;;;;;;;;0.40;99.90;;;;;;2057794;28;19920;-70
2024/02/29 05:42:22;;;;;;;;;;;0.50;99.90;;;;;;2059710;28;19944;-71
2024/02/29 05:43:22;;;;;;;;;;;0.50;99.90;;;;;;2055849;28;20321;-71
2024/02/29 05:44:23;;;;;;;;;;;0.50;99.90;;;;;;2059517;28;19909;-71
2024/02/29 05:45:23;;;;;;;;;;;0.50;99.90;;;;;;2059760;28;19959;-71
2024/02/29 05:46:24;;;;;;;;;;;0.50;99.90;;;;;;2059321;28;19924;-71
2024/02/29 05:47:24;;;;;;;;;;;0.50;99.90;;;;;;2054297;28;20020;-70
2024/02/29 05:48:25;;;;;;;;;;;0.50;99.90;;;;;;2057378;28;20383;-71
2024/02/29 05:49:25;;;;;;;;;;;0.60;99.90;;;;;;2059492;28;19914;-71
2024/02/29 05:50:26;;;;;;;;;;;0.60;99.90;;;;;;2056140;28;19914;-70
2024/02/29 05:51:27;;;;;;;;;;;0.60;99.90;;;;;;2059482;28;19933;-70
2024/02/29 05:52:27;;;;;;;;;;;0.60;99.90;;;;;;2059767;28;19910;-70
2024/02/29 05:53:28;;;;;;;;;;;0.60;99.90;;;;;;2053449;28;19914;-70
2024/02/29 05:54:28;;;;;;;;;;;0.70;99.90;;;;;;2054154;28;20132;-70
2024/02/29 05:55:29;;;;;;;;;;;0.70;99.90;;;;;;2059622;28;19914;-70
2024/02/29 05:56:30;;;;;;;;;;;0.70;99.90;;;;;;2055567;28;19918;-70
2024/02/29 05:57:31;;;;;;;;;;;0.70;99.90;;;;;;2057643;28;20746;-70